Time;durP1;ratioP1;P1;durP2;ratioP2;P2;SDS_P1;SDS_P2;PMS_P1;PMS_P2;Temp;Humidity;BMP_temperature;BMP_pressure;BME280_temperature;BME280_humidity;BME280_pressure;Samples;Min_cycle;Max_cycle;Signal;HPM_P1;HPM_P2
2022/12/14 00:00:41;;;;;;;55.05;27.23;;;-3.50;99.90;;;;;;5044135;28;20044;-80
2022/12/14 00:03:07;;;;;;;49.35;24.02;;;-3.50;99.90;;;;;;5046002;28;20123;-81
2022/12/14 00:05:33;;;;;;;48.60;24.40;;;-3.50;99.90;;;;;;5047170;28;20060;-81
2022/12/14 00:07:59;;;;;;;52.22;25.73;;;-3.40;99.90;;;;;;5057821;28;20041;-81
2022/12/14 00:10:24;;;;;;;54.88;25.80;;;-3.00;99.90;;;;;;5036483;28;21343;-81
2022/12/14 00:12:50;;;;;;;55.45;26.73;;;-3.50;99.90;;;;;;5023262;28;20036;-81
2022/12/14 00:15:16;;;;;;;60.90;27.13;;;-3.50;99.90;;;;;;5042420;28;20080;-81
2022/12/14 00:17:42;;;;;;;52.05;25.20;;;-3.50;99.90;;;;;;5039525;28;20036;-82
2022/12/14 00:20:08;;;;;;;49.22;24.58;;;-3.50;99.90;;;;;;5057591;28;20093;-82
2022/12/14 00:22:34;;;;;;;49.83;25.08;;;-3.60;99.90;;;;;;5025666;28;20040;-82
2022/12/14 00:25:01;;;;;;;54.47;25.30;;;-2.40;99.90;;;;;;5019189;28;20060;-81
2022/12/14 00:27:27;;;;;;;48.47;23.60;;;-3.60;99.90;;;;;;5046066;28;20044;-81
2022/12/14 00:29:53;;;;;;;48.70;23.10;;;-3.60;99.90;;;;;;5024564;28;20132;-81
2022/12/14 00:32:19;;;;;;;50.28;23.75;;;-3.70;99.90;;;;;;5019123;28;20156;-79
2022/12/14 00:34:45;;;;;;;51.42;23.50;;;-3.70;99.90;;;;;;5058583;28;20055;-80
2022/12/14 00:37:11;;;;;;;50.97;24.42;;;-3.80;99.90;;;;;;5044265;28;20036;-81
2022/12/14 00:39:40;;;;;;;52.42;25.40;;;-3.70;99.90;;;;;;5042289;28;20037;-80
2022/12/14 00:42:06;;;;;;;53.70;25.52;;;-3.70;99.90;;;;;;5047396;28;20044;-81
2022/12/14 00:44:32;;;;;;;50.55;24.58;;;-3.10;99.90;;;;;;5049974;28;20075;-80
2022/12/14 00:46:58;;;;;;;46.22;23.08;;;-3.70;99.90;;;;;;5035516;28;20436;-80
2022/12/14 00:49:24;;;;;;;51.53;24.15;;;-2.10;99.90;;;;;;5029196;28;20574;-81
2022/12/14 00:51:50;;;;;;;53.40;24.80;;;-3.80;99.90;;;;;;5042496;28;20116;-80
2022/12/14 00:54:16;;;;;;;47.20;23.42;;;-3.80;99.90;;;;;;5041437;28;20059;-80
2022/12/14 00:56:42;;;;;;;51.83;23.10;;;-3.90;99.90;;;;;;5019459;28;20040;-80
2022/12/14 00:59:08;;;;;;;53.15;23.25;;;-3.90;99.90;;;;;;5041202;28;20480;-80
2022/12/14 01:01:34;;;;;;;50.70;23.23;;;-3.50;99.90;;;;;;5024773;28;20045;-80
2022/12/14 01:04:20;;;;;;;48.53;23.02;;;-4.00;99.90;;;;;;5060550;28;20064;-80
2022/12/14 01:06:48;;;;;;;49.30;22.65;;;-4.10;99.90;;;;;;5040575;28;20032;-82
2022/12/14 01:09:14;;;;;;;51.70;23.23;;;-4.10;99.90;;;;;;5023543;28;20063;-80
2022/12/14 01:11:40;;;;;;;47.38;23.65;;;-4.20;99.90;;;;;;5018960;28;20056;-80
2022/12/14 01:14:07;;;;;;;51.53;22.90;;;-4.20;99.90;;;;;;5015161;28;20037;-79
2022/12/14 01:16:33;;;;;;;47.38;21.90;;;-3.70;99.90;;;;;;5035066;28;20043;-81
2022/12/14 01:18:59;;;;;;;47.33;22.73;;;-4.20;99.90;;;;;;5021794;28;20044;-80
2022/12/14 01:21:25;;;;;;;52.10;23.17;;;-4.20;99.90;;;;;;5050169;28;20289;-80
2022/12/14 01:23:54;;;;;;;48.67;23.38;;;-2.80;99.90;;;;;;5011682;28;20045;-80
2022/12/14 01:26:21;;;;;;;47.65;24.10;;;-2.90;99.90;;;;;;5051351;28;20124;-79
2022/12/14 01:28:51;;;;;;;43.35;21.67;;;-4.30;99.90;;;;;;5021697;28;20128;-79
2022/12/14 01:31:19;;;;;;;49.72;23.63;;;-4.40;99.90;;;;;;5024746;28;20048;-80
2022/12/14 01:33:46;;;;;;;45.00;22.17;;;-4.30;99.90;;;;;;5036497;28;20050;-80
2022/12/14 01:36:15;;;;;;;46.40;22.33;;;-3.50;99.90;;;;;;5038799;28;20460;-79
2022/12/14 01:38:41;;;;;;;45.53;22.40;;;-4.40;99.90;;;;;;5054985;28;20468;-80
2022/12/14 01:41:15;;;;;;;44.63;22.17;;;-4.40;99.90;;;;;;5036556;28;20037;-79
2022/12/14 01:44:07;;;;;;;45.70;23.13;;;-4.50;99.90;;;;;;5014049;28;20049;-80
2022/12/14 01:46:42;;;;;;;;;;;-4.50;99.90;;;;;;4997348;28;20391;-80
2022/12/14 01:49:32;;;;;;;44.08;20.30;;;-4.50;99.90;;;;;;5018365;28;20359;-80
2022/12/14 01:52:01;;;;;;;42.13;20.92;;;-4.60;99.90;;;;;;5022877;28;20379;-79
2022/12/14 01:54:29;;;;;;;45.78;21.98;;;-3.10;99.90;;;;;;5034440;28;20498;-80
2022/12/14 01:56:56;;;;;;;51.08;22.23;;;-4.00;99.90;;;;;;5052246;28;20044;-79
2022/12/14 01:59:27;;;;;;;44.65;22.50;;;-3.80;99.90;;;;;;5033818;28;20056;-79
2022/12/14 02:01:54;;;;;;;46.05;22.27;;;-4.70;99.90;;;;;;5037230;28;20414;-80
2022/12/14 02:04:20;;;;;;;47.85;22.27;;;-3.20;99.90;;;;;;5035441;28;20457;-79
2022/12/14 02:06:49;;;;;;;47.35;21.20;;;-4.80;99.90;;;;;;5021903;28;20076;-79
2022/12/14 02:09:24;;;;;;;45.35;21.83;;;-4.80;99.90;;;;;;5021444;28;20071;-79
2022/12/14 02:12:03;;;;;;;46.25;22.05;;;-4.90;99.90;;;;;;5061548;28;20655;-79
2022/12/14 02:14:29;;;;;;;45.53;21.70;;;-4.90;99.90;;;;;;5035694;28;20506;-80
2022/12/14 02:16:56;;;;;;;45.67;21.23;;;-4.90;99.90;;;;;;5033448;28;20036;-80
2022/12/14 02:19:22;;;;;;;47.83;21.85;;;-4.90;99.90;;;;;;5016045;28;20044;-79
2022/12/14 02:22:03;;;;;;;46.67;22.05;;;-4.90;99.90;;;;;;5021583;28;20351;-80
2022/12/14 02:24:51;;;;;;;43.83;21.05;;;-5.00;99.90;;;;;;5027947;28;20049;-79
2022/12/14 02:27:51;;;;;;;46.35;21.13;;;-5.00;99.90;;;;;;5024088;28;20417;-79
2022/12/14 02:30:18;;;;;;;42.47;20.83;;;-5.10;99.90;;;;;;5055926;28;20489;-79
2022/12/14 02:33:10;;;;;;;44.00;20.27;;;-5.10;99.90;;;;;;5023946;28;20048;-79
2022/12/14 02:35:36;;;;;;;45.08;21.33;;;-5.20;99.90;;;;;;5034412;28;20053;-79
2022/12/14 02:38:38;;;;;;;44.42;21.13;;;-3.40;99.90;;;;;;5036217;28;20040;-79
2022/12/14 02:41:11;;;;;;;41.92;20.17;;;-5.20;99.90;;;;;;5021760;28;20609;-79
2022/12/14 02:43:55;;;;;;;42.95;20.92;;;-5.30;99.90;;;;;;5045120;28;20044;-79
2022/12/14 02:46:37;;;;;;;49.58;20.80;;;-5.30;99.90;;;;;;5043136;28;20053;-80
2022/12/14 02:49:15;;;;;;;41.63;20.55;;;-5.30;99.90;;;;;;5050936;28;20041;-80
2022/12/14 02:52:20;;;;;;;48.45;20.75;;;-5.40;99.90;;;;;;5011066;28;20548;-80
2022/12/14 02:55:28;;;;;;;50.05;22.00;;;-5.40;99.90;;;;;;5039326;28;20417;-80
2022/12/14 02:57:57;;;;;;;41.70;21.77;;;-5.40;99.90;;;;;;5011409;28;20045;-79
2022/12/14 03:00:23;;;;;;;45.53;21.27;;;-5.40;99.90;;;;;;5035541;28;20056;-79
2022/12/14 03:02:51;;;;;;;47.08;21.95;;;-5.50;99.90;;;;;;5019709;28;20079;-79
2022/12/14 03:05:17;;;;;;;42.35;20.20;;;-5.00;99.90;;;;;;5036091;28;20110;-79
2022/12/14 03:07:45;;;;;;;47.72;21.63;;;-5.50;99.90;;;;;;5038618;28;20041;-79
2022/12/14 03:10:29;;;;;;;43.83;21.25;;;-4.00;99.90;;;;;;5056835;28;20068;-79
2022/12/14 03:13:15;;;;;;;45.72;20.92;;;-5.60;99.90;;;;;;5040045;28;20593;-79
2022/12/14 03:15:45;;;;;;;45.85;20.58;;;-5.40;99.90;;;;;;5028238;28;20095;-81
2022/12/14 03:18:16;;;;;;;47.15;21.02;;;-4.60;99.90;;;;;;5021000;28;20195;-79
2022/12/14 03:20:47;;;;;;;46.40;20.63;;;-5.60;99.90;;;;;;5036410;28;20048;-80
2022/12/14 03:23:28;;;;;;;45.97;21.58;;;-5.70;99.90;;;;;;5034568;28;20183;-79
2022/12/14 03:26:17;;;;;;;48.38;20.63;;;-5.40;99.90;;;;;;5020061;28;20473;-78
2022/12/14 03:28:50;;;;;;;46.63;21.13;;;-5.20;99.90;;;;;;5053994;28;20045;-78
2022/12/14 03:31:52;;;;;;;42.78;20.83;;;-5.80;99.90;;;;;;5051588;28;20068;-79
2022/12/14 03:34:28;;;;;;;47.05;20.40;;;-5.80;99.90;;;;;;5017840;28;20063;-79
2022/12/14 03:37:18;;;;;;;45.58;20.05;;;-5.80;99.90;;;;;;5043593;28;20033;-79
2022/12/14 03:39:45;;;;;;;46.50;21.60;;;-4.60;99.90;;;;;;5049260;28;20049;-79
2022/12/14 03:42:26;;;;;;;46.95;21.10;;;-5.80;99.90;;;;;;5046069;28;20047;-79
2022/12/14 03:45:02;;;;;;;47.43;21.60;;;-5.80;99.90;;;;;;5060145;28;20386;-79
2022/12/14 03:47:53;;;;;;;46.55;21.50;;;-5.90;99.90;;;;;;5061285;28;20679;-79
2022/12/14 03:50:26;;;;;;;47.88;21.23;;;-5.90;99.90;;;;;;4973995;28;1325730;-79
2022/12/14 03:53:06;;;;;;;47.80;20.55;;;-6.00;99.90;;;;;;5040832;28;20057;-79
2022/12/14 03:56:07;;;;;;;40.80;18.58;;;-5.90;99.90;;;;;;5021353;28;20045;-78
2022/12/14 03:58:39;;;;;;;49.83;21.45;;;-5.90;99.90;;;;;;5032554;28;20056;-79
2022/12/14 04:01:42;;;;;;;45.78;21.20;;;-6.00;99.90;;;;;;5040347;28;20069;-79
2022/12/14 04:04:33;;;;;;;45.78;20.38;;;-5.90;99.90;;;;;;5054178;28;20641;-79
2022/12/14 04:07:15;;;;;;;45.15;19.63;;;-6.00;99.90;;;;;;5036100;28;20048;-78
2022/12/14 04:09:55;;;;;;;44.38;21.67;;;-6.00;99.90;;;;;;5041178;28;20183;-78
2022/12/14 04:21:22;;;;;;;47.83;20.33;;;-6.10;99.90;;;;;;5045135;28;20047;-79
2022/12/14 04:26:48;;;;;;;44.25;19.15;;;-4.60;99.90;;;;;;4999726;28;20127;-79
2022/12/14 04:32:16;;;;;;;44.53;19.85;;;-6.20;99.90;;;;;;5038877;28;20536;-79
2022/12/14 04:34:46;;;;;;;42.40;19.38;;;-6.20;99.90;;;;;;5023065;28;20048;-79
2022/12/14 04:37:15;;;;;;;47.58;20.42;;;-5.20;99.90;;;;;;5041463;28;20464;-79
2022/12/14 04:39:55;;;;;;;44.05;19.80;;;-6.30;99.90;;;;;;5054162;28;20145;-79
2022/12/14 04:42:28;;;;;;;45.03;20.40;;;-6.30;99.90;;;;;;5018519;28;20098;-80
2022/12/14 04:45:01;;;;;;;48.10;21.10;;;-6.40;99.90;;;;;;5039784;28;20438;-81
2022/12/14 04:47:32;;;;;;;44.15;18.85;;;-6.40;99.90;;;;;;5023436;28;20495;-79
2022/12/14 04:50:01;;;;;;;;;;;-6.40;99.90;;;;;;5045695;28;20055;-78
2022/12/14 04:52:37;;;;;;;41.28;19.65;;;-4.90;99.90;;;;;;5055668;28;19925;-78
2022/12/14 04:55:09;;;;;;;51.33;23.38;;;-5.30;99.90;;;;;;5042832;28;20045;-79
2022/12/14 04:57:41;;;;;;;50.50;22.65;;;-6.40;99.90;;;;;;5017468;28;20055;-78
2022/12/14 05:00:08;;;;;;;55.58;25.05;;;-6.50;99.90;;;;;;5047042;28;20047;-78
2022/12/14 05:02:55;;;;;;;53.38;23.70;;;-6.50;99.90;;;;;;5033709;28;20406;-77
2022/12/14 05:05:34;;;;;;;49.97;22.63;;;-6.50;99.90;;;;;;5027060;28;20051;-79
2022/12/14 05:08:36;;;;;;;45.53;22.08;;;-6.50;99.90;;;;;;5049803;28;20075;-79
2022/12/14 05:11:28;;;;;;;50.78;21.67;;;-6.60;99.90;;;;;;4967314;28;20066;-78
2022/12/14 05:14:01;;;;;;;55.85;22.38;;;-6.60;99.90;;;;;;5027158;28;20044;-78
2022/12/14 05:16:28;;;;;;;52.47;22.60;;;-5.30;99.90;;;;;;5027230;28;20766;-79
2022/12/14 05:18:54;;;;;;;47.42;20.60;;;-6.70;99.90;;;;;;5060641;28;20067;-79
2022/12/14 05:24:04;;;;;;;47.88;20.27;;;-6.70;99.90;;;;;;5034364;28;20688;-79
2022/12/14 05:26:31;;;;;;;59.63;20.55;;;-6.70;99.90;;;;;;5019075;28;20488;-78
2022/12/14 05:28:57;;;;;;;43.65;19.13;;;-6.80;99.90;;;;;;5061953;28;20055;-78
2022/12/14 05:31:24;;;;;;;46.17;20.60;;;-6.80;99.90;;;;;;5040170;28;20060;-78
2022/12/14 05:33:49;;;;;;;48.13;19.55;;;-5.30;99.90;;;;;;5081687;28;20044;-78
2022/12/14 05:36:15;;;;;;;43.45;19.77;;;-6.80;99.90;;;;;;5054176;28;20046;-79
2022/12/14 05:38:42;;;;;;;44.03;19.48;;;-6.80;99.90;;;;;;5052956;28;20048;-79
2022/12/14 05:41:08;;;;;;;44.97;18.25;;;-6.40;99.90;;;;;;5050072;28;20209;-79
2022/12/14 05:43:35;;;;;;;45.67;20.30;;;-6.90;99.90;;;;;;5069899;28;20089;-78
2022/12/14 05:46:03;;;;;;;47.25;20.23;;;-6.90;99.90;;;;;;5055846;28;20046;-80
2022/12/14 05:48:30;;;;;;;41.17;19.33;;;-6.90;99.90;;;;;;5046523;28;20049;-80
2022/12/14 05:51:11;;;;;;;43.58;19.80;;;-6.90;99.90;;;;;;5051634;28;20064;-79
2022/12/14 05:53:38;;;;;;;50.30;22.17;;;-6.90;99.90;;;;;;5064147;28;20060;-79
2022/12/14 05:56:06;;;;;;;46.53;20.23;;;-6.90;99.90;;;;;;5055111;28;20965;-79
2022/12/14 05:58:33;;;;;;;45.53;20.70;;;-6.90;99.90;;;;;;5028214;28;21436;-79
2022/12/14 06:01:00;;;;;;;45.97;20.70;;;-5.10;99.90;;;;;;5040690;28;20046;-79
2022/12/14 06:03:27;;;;;;;44.88;20.33;;;-6.90;99.90;;;;;;5045304;28;20053;-79
2022/12/14 06:05:53;;;;;;;49.22;21.00;;;-5.80;99.90;;;;;;5058806;28;20067;-79
2022/12/14 06:08:20;;;;;;;48.08;20.63;;;-7.00;99.90;;;;;;5023827;28;20051;-79
2022/12/14 06:10:46;;;;;;;48.00;20.67;;;-5.40;99.90;;;;;;5025594;28;20079;-79
2022/12/14 06:13:11;;;;;;;49.85;19.90;;;-7.00;99.90;;;;;;5056868;28;20094;-79
2022/12/14 06:15:37;;;;;;;49.03;20.10;;;-7.00;99.90;;;;;;5041426;28;20675;-80
2022/12/14 06:18:03;;;;;;;48.17;20.08;;;-7.10;99.90;;;;;;5039854;28;20041;-79
2022/12/14 06:20:28;;;;;;;41.85;20.50;;;-7.10;99.90;;;;;;5057885;28;20045;-79
2022/12/14 06:22:54;;;;;;;51.47;21.20;;;-7.10;99.90;;;;;;5040027;28;20098;-79
2022/12/14 06:25:20;;;;;;;48.42;21.13;;;-7.10;99.90;;;;;;5057359;28;20501;-79
2022/12/14 06:27:46;;;;;;;49.30;20.48;;;-7.10;99.90;;;;;;5037566;28;20052;-79
2022/12/14 06:30:12;;;;;;;48.17;21.48;;;-7.10;99.90;;;;;;5024686;28;20044;-79
2022/12/14 06:32:38;;;;;;;46.47;19.30;;;-7.20;99.90;;;;;;5039613;28;20044;-79
2022/12/14 06:35:04;;;;;;;52.10;19.52;;;-7.10;99.90;;;;;;5024000;28;20048;-79
2022/12/14 06:37:30;;;;;;;47.00;19.05;;;-7.10;99.90;;;;;;5027220;28;20052;-79
2022/12/14 06:39:57;;;;;;;53.17;20.65;;;-6.30;99.90;;;;;;5024113;28;20055;-80
2022/12/14 06:42:23;;;;;;;46.63;20.73;;;-7.40;99.90;;;;;;5041676;28;20468;-80
2022/12/14 06:44:48;;;;;;;48.28;20.50;;;-7.20;99.90;;;;;;5040924;28;20139;-80
2022/12/14 06:47:14;;;;;;;51.40;20.10;;;-6.40;99.90;;;;;;5025258;28;20115;-80
2022/12/14 06:49:40;;;;;;;49.42;19.35;;;-6.50;99.90;;;;;;5027713;28;20044;-80
2022/12/14 06:52:06;;;;;;;49.45;20.02;;;-7.50;99.90;;;;;;5027389;28;21103;-80
2022/12/14 06:54:32;;;;;;;44.90;19.45;;;-7.30;99.90;;;;;;5044793;28;20068;-80
2022/12/14 06:56:58;;;;;;;58.85;20.92;;;-7.30;99.90;;;;;;5047890;28;20448;-80
2022/12/14 06:59:24;;;;;;;44.75;19.23;;;-7.40;99.90;;;;;;5023549;28;20049;-80
2022/12/14 07:01:50;;;;;;;48.78;20.67;;;-7.40;99.90;;;;;;5037168;28;20036;-80
2022/12/14 07:04:17;;;;;;;47.55;19.55;;;-7.50;99.90;;;;;;5036484;28;20050;-81
2022/12/14 07:06:43;;;;;;;44.85;20.02;;;-7.40;99.90;;;;;;5038422;28;20044;-80
2022/12/14 07:09:12;;;;;;;49.33;20.17;;;-7.40;99.90;;;;;;5020938;28;20033;-81
2022/12/14 07:11:38;;;;;;;48.05;20.45;;;-7.40;99.90;;;;;;5057656;28;20037;-80
2022/12/14 07:14:05;;;;;;;44.38;19.42;;;-7.40;99.90;;;;;;5020773;28;20044;-80
2022/12/14 07:16:33;;;;;;;47.28;20.05;;;-7.40;99.90;;;;;;5020941;28;20623;-80
2022/12/14 07:18:59;;;;;;;50.45;19.67;;;-7.50;99.90;;;;;;5055358;28;20041;-80
2022/12/14 07:21:26;;;;;;;50.40;19.83;;;-7.50;99.90;;;;;;5039458;28;20561;-80
2022/12/14 07:23:52;;;;;;;45.65;19.23;;;-7.50;99.90;;;;;;5053817;28;20524;-80
2022/12/14 07:26:19;;;;;;;49.63;20.63;;;-7.50;99.90;;;;;;5039686;28;20076;-79
2022/12/14 07:28:45;;;;;;;46.70;19.73;;;-6.10;99.90;;;;;;5037541;28;20037;-78
2022/12/14 07:31:18;;;;;;;45.65;19.90;;;-7.50;99.90;;;;;;5017961;28;20170;-80
2022/12/14 07:33:45;;;;;;;47.17;20.70;;;-7.60;99.90;;;;;;5031781;28;20409;-78
2022/12/14 07:36:14;;;;;;;47.85;20.15;;;-7.60;99.90;;;;;;5035306;28;20131;-78
2022/12/14 07:38:42;;;;;;;46.28;20.27;;;-7.50;99.90;;;;;;5039374;28;20053;-77
2022/12/14 07:41:15;;;;;;;40.20;17.83;;;-6.00;99.90;;;;;;5022728;28;20048;-79
2022/12/14 07:43:42;;;;;;;44.88;18.75;;;-7.60;99.90;;;;;;5041488;28;20041;-77
2022/12/14 07:46:14;;;;;;;48.50;20.40;;;-7.60;99.90;;;;;;5023399;28;20044;-78
2022/12/14 07:48:54;;;;;;;47.10;19.85;;;-7.60;99.90;;;;;;5024355;28;20205;-78
2022/12/14 07:51:23;;;;;;;56.47;19.73;;;-7.60;99.90;;;;;;5067545;28;20072;-78
2022/12/14 07:53:49;;;;;;;41.60;17.90;;;-7.60;99.90;;;;;;5026636;28;20051;-78
2022/12/14 07:56:21;;;;;;;46.58;20.35;;;-7.60;99.90;;;;;;5027128;28;20040;-77
2022/12/14 07:58:48;;;;;;;44.45;19.55;;;-7.70;99.90;;;;;;5046132;28;20526;-79
2022/12/14 08:01:16;;;;;;;55.50;19.73;;;-7.70;99.90;;;;;;5055698;28;20039;-77
2022/12/14 08:03:45;;;;;;;49.60;21.35;;;-7.70;99.90;;;;;;5039841;28;20103;-77
2022/12/14 08:06:13;;;;;;;48.35;20.35;;;-7.70;99.90;;;;;;5082060;28;20028;-77
2022/12/14 08:08:41;;;;;;;44.47;19.33;;;-6.40;99.90;;;;;;5065867;28;20048;-78
2022/12/14 08:11:13;;;;;;;46.03;20.10;;;-7.70;99.90;;;;;;5043975;28;20098;-78
2022/12/14 08:13:39;;;;;;;47.72;19.83;;;-7.60;99.90;;;;;;5043509;28;20036;-78
2022/12/14 08:16:08;;;;;;;48.22;19.60;;;-7.70;99.90;;;;;;5046893;28;20032;-77
2022/12/14 08:18:34;;;;;;;49.15;20.15;;;-6.00;99.90;;;;;;5029478;28;20044;-78
2022/12/14 08:21:01;;;;;;;81.95;32.17;;;-7.60;99.90;;;;;;5030765;28;20051;-77
2022/12/14 08:23:33;;;;;;;80.47;32.83;;;-7.60;99.90;;;;;;5062509;28;20040;-78
2022/12/14 08:26:00;;;;;;;70.28;28.45;;;-7.70;99.90;;;;;;5045091;28;20044;-78
2022/12/14 08:28:30;;;;;;;62.47;24.38;;;-7.00;99.90;;;;;;5045251;28;20041;-80
2022/12/14 08:30:56;;;;;;;68.20;27.30;;;-7.60;99.90;;;;;;5059780;28;20113;-80
2022/12/14 08:33:22;;;;;;;65.88;27.25;;;-7.60;99.90;;;;;;5041516;28;20048;-80
2022/12/14 08:35:48;;;;;;;61.47;25.83;;;-6.30;99.90;;;;;;5044617;28;20547;-80
2022/12/14 08:38:14;;;;;;;66.05;24.83;;;-6.30;99.90;;;;;;5027863;28;20047;-80
2022/12/14 08:40:41;;;;;;;58.08;24.77;;;-7.50;99.90;;;;;;5024580;28;20044;-80
2022/12/14 08:43:08;;;;;;;62.22;23.48;;;-6.80;99.90;;;;;;5026172;28;20052;-79
2022/12/14 08:45:34;;;;;;;59.13;23.38;;;-7.90;99.90;;;;;;5043107;28;20044;-77
2022/12/14 08:48:00;;;;;;;48.80;20.60;;;-7.50;99.90;;;;;;5039950;28;20427;-77
2022/12/14 08:50:28;;;;;;;52.08;21.52;;;-7.40;99.90;;;;;;5042984;28;20512;-78
2022/12/14 08:52:54;;;;;;;49.15;21.52;;;-7.40;99.90;;;;;;5043725;28;20136;-78
2022/12/14 08:55:22;;;;;;;53.63;20.88;;;-7.40;99.90;;;;;;5059083;28;20618;-78
2022/12/14 08:57:48;;;;;;;52.28;20.50;;;-7.30;99.90;;;;;;5025686;28;20048;-79
2022/12/14 09:00:14;;;;;;;51.55;21.83;;;-7.30;99.90;;;;;;5029530;28;20037;-79
2022/12/14 09:02:40;;;;;;;51.05;20.88;;;-7.20;99.90;;;;;;5031379;28;20048;-79
2022/12/14 09:05:06;;;;;;;49.60;21.00;;;-7.30;99.90;;;;;;5045758;28;20044;-77
2022/12/14 09:07:32;;;;;;;56.13;24.27;;;-6.40;99.90;;;;;;5030123;28;20798;-78
2022/12/14 09:09:58;;;;;;;52.92;20.65;;;-5.60;99.90;;;;;;5031141;28;20045;-78
2022/12/14 09:12:24;;;;;;;47.78;20.40;;;-7.10;99.90;;;;;;5025941;28;20070;-78
2022/12/14 09:14:50;;;;;;;57.25;21.58;;;-7.00;99.90;;;;;;5039844;28;21176;-79
2022/12/14 09:17:18;;;;;;;51.83;22.65;;;-5.60;99.90;;;;;;5052102;28;20376;-79
2022/12/14 09:19:44;;;;;;;56.20;22.02;;;-5.90;99.90;;;;;;5041243;28;20516;-79
2022/12/14 09:22:10;;;;;;;60.53;23.77;;;-5.70;99.90;;;;;;5023763;28;20036;-79
2022/12/14 09:24:37;;;;;;;58.00;23.80;;;-6.70;99.90;;;;;;5026689;28;20139;-79
2022/12/14 09:27:03;;;;;;;55.25;23.08;;;-5.60;99.90;;;;;;5046199;28;20055;-79
2022/12/14 09:29:30;;;;;;;50.40;22.58;;;-6.60;99.90;;;;;;5022854;28;20471;-80
2022/12/14 09:31:57;;;;;;;51.72;21.70;;;-6.60;99.90;;;;;;5058876;28;20040;-79
2022/12/14 09:34:24;;;;;;;58.60;23.42;;;-6.50;99.90;;;;;;5028922;28;20067;-79
2022/12/14 09:36:51;;;;;;;57.40;22.08;;;-6.40;99.90;;;;;;5081222;28;20048;-79
2022/12/14 09:39:17;;;;;;;52.60;21.48;;;-6.40;99.90;;;;;;5056159;28;20051;-78
2022/12/14 09:42:07;;;;;;;52.72;22.33;;;-6.30;99.90;;;;;;5054907;28;20041;-80
2022/12/14 09:44:59;;;;;;;59.65;22.20;;;-6.20;99.90;;;;;;5052997;28;20064;-79
2022/12/14 09:47:31;;;;;;;;;;;-6.10;99.90;;;;;;5053699;28;20053;-79
2022/12/14 09:50:02;;;;;;;56.25;21.98;;;-6.10;99.90;;;;;;5044156;28;19932;-78
2022/12/14 09:52:53;;;;;;;54.53;23.52;;;-5.40;99.90;;;;;;5059136;28;20439;-79
2022/12/14 09:55:32;;;;;;;50.05;22.25;;;-6.00;99.90;;;;;;5042784;28;20051;-79
2022/12/14 09:58:02;;;;;;;52.92;22.73;;;-5.90;99.90;;;;;;5038964;28;20423;-79
2022/12/14 10:00:39;;;;;;;57.25;22.70;;;-5.90;99.90;;;;;;5044093;28;20037;-78
2022/12/14 10:03:24;;;;;;;56.97;22.55;;;-5.80;99.90;;;;;;5057791;28;20048;-79
2022/12/14 10:06:29;;;;;;;58.25;23.27;;;-5.80;99.90;;;;;;5026249;28;20620;-79
2022/12/14 10:09:47;;;;;;;54.13;22.98;;;-5.50;99.90;;;;;;5022057;28;20048;-80
2022/12/14 10:12:31;;;;;;;56.88;23.50;;;-5.50;99.90;;;;;;5024887;28;20055;-79
2022/12/14 10:15:30;;;;;;;57.90;24.20;;;-5.50;99.90;;;;;;5046660;28;20040;-80
2022/12/14 10:18:02;;;;;;;57.10;24.63;;;-5.40;99.90;;;;;;5005994;28;20060;-80
2022/12/14 10:20:54;;;;;;;54.85;22.40;;;-5.30;99.90;;;;;;5040089;28;20078;-80
2022/12/14 10:23:24;;;;;;;55.28;22.92;;;-5.30;99.90;;;;;;5035239;28;20068;-80
2022/12/14 10:26:02;;;;;;;58.13;23.23;;;-5.20;99.90;;;;;;5035450;28;20045;-81
2022/12/14 10:28:40;;;;;;;52.72;22.42;;;-5.00;99.90;;;;;;5061298;28;20674;-81
2022/12/14 10:31:12;;;;;;;47.53;21.65;;;-5.00;99.90;;;;;;5068041;28;20055;-81
2022/12/14 10:33:43;;;;;;;51.28;21.42;;;-4.90;99.90;;;;;;5072889;28;20048;-81
2022/12/14 10:36:40;;;;;;;45.72;20.73;;;-4.90;99.90;;;;;;5040349;28;20073;-81
2022/12/14 10:39:21;;;;;;;43.60;19.58;;;-4.80;99.90;;;;;;5000138;28;20045;-81
2022/12/14 10:42:00;;;;;;;41.97;18.60;;;-4.70;99.90;;;;;;5032589;28;20178;-81
2022/12/14 10:44:42;;;;;;;40.55;17.45;;;-4.60;99.90;;;;;;5034194;28;20075;-80
2022/12/14 10:47:28;;;;;;;39.28;16.50;;;-5.10;99.90;;;;;;5050444;28;20095;-81
2022/12/14 10:49:59;;;;;;;36.20;16.33;;;-4.40;99.90;;;;;;5021268;28;20140;-82
2022/12/14 10:52:33;;;;;;;38.50;16.88;;;-4.30;99.90;;;;;;5018301;28;20065;-83
2022/12/14 10:55:12;;;;;;;37.60;16.38;;;-5.60;99.90;;;;;;5013875;28;20063;-82
2022/12/14 10:57:39;;;;;;;41.45;16.58;;;-4.20;99.90;;;;;;5017247;28;21101;-82
2022/12/14 11:00:12;;;;;;;44.03;17.67;;;-2.40;99.90;;;;;;5021635;28;20241;-82
2022/12/14 11:02:43;;;;;;;40.05;17.77;;;-4.20;99.90;;;;;;5021775;28;20108;-82
2022/12/14 11:05:28;;;;;;;39.78;17.80;;;-4.20;99.90;;;;;;5022462;28;20366;-83
2022/12/14 11:07:55;;;;;;;41.38;16.83;;;-4.20;99.90;;;;;;5023195;28;20086;-82
2022/12/14 11:10:34;;;;;;;40.67;16.48;;;-2.90;99.90;;;;;;5021662;28;20857;-83
2022/12/14 11:13:06;;;;;;;41.47;16.92;;;-4.10;99.90;;;;;;5043320;28;20118;-83
2022/12/14 11:15:41;;;;;;;38.97;17.10;;;-3.20;99.90;;;;;;5020424;28;20067;-83
2022/12/14 11:18:10;;;;;;;41.28;18.23;;;-4.10;99.90;;;;;;5034237;28;20131;-83
2022/12/14 11:20:47;;;;;;;39.65;17.25;;;-2.60;99.90;;;;;;5017895;28;20171;-83
2022/12/14 11:23:19;;;;;;;41.22;17.48;;;-4.00;99.90;;;;;;5031955;28;20060;-82
2022/12/14 11:25:49;;;;;;;42.88;18.55;;;-3.90;99.90;;;;;;5032386;28;20051;-82
2022/12/14 11:28:41;;;;;;;40.35;17.65;;;-3.90;99.90;;;;;;5029888;28;21659;-82
2022/12/14 11:31:59;;;;;;;;;;;;;;;;;;;;;
2022/12/14 11:34:38;;;;;;;40.47;17.95;;;-3.60;99.90;;;;;;5030790;28;20468;-82
2022/12/14 11:37:29;;;;;;;37.05;16.42;;;-3.80;99.90;;;;;;5027308;28;20049;-84
2022/12/14 11:40:07;;;;;;;37.33;16.98;;;-4.40;99.90;;;;;;5015673;28;20080;-85
2022/12/14 11:43:04;;;;;;;40.38;18.02;;;-3.70;99.90;;;;;;5015893;28;20152;-87
2022/12/14 11:45:36;;;;;;;34.75;16.42;;;-2.70;99.90;;;;;;5033104;28;20079;-82
2022/12/14 11:48:16;;;;;;;36.00;16.10;;;-3.60;99.90;;;;;;5032562;28;20692;-83
2022/12/14 11:50:44;;;;;;;36.25;15.95;;;-3.60;99.90;;;;;;5027090;28;20072;-82
2022/12/14 11:53:17;;;;;;;35.38;15.23;;;-3.60;99.90;;;;;;5034313;28;20060;-83
2022/12/14 11:55:56;;;;;;;39.50;15.65;;;-3.50;99.90;;;;;;5034848;28;20544;-83
2022/12/14 11:58:32;;;;;;;32.17;14.85;;;-3.50;99.90;;;;;;5021144;28;20611;-86
2022/12/14 12:00:59;;;;;;;31.55;14.05;;;-1.70;99.90;;;;;;5021856;28;20057;-83
2022/12/14 12:03:32;;;;;;;30.90;15.25;;;-3.00;99.90;;;;;;5037762;28;20083;-83
2022/12/14 12:06:08;;;;;;;28.88;13.63;;;-2.10;99.90;;;;;;5017155;28;20057;-83
2022/12/14 12:08:37;;;;;;;31.02;13.35;;;-3.20;99.90;;;;;;5021903;28;20056;-84
2022/12/14 12:11:14;;;;;;;30.42;13.27;;;-3.20;99.90;;;;;;5000629;28;20103;-83
2022/12/14 12:13:43;;;;;;;26.33;11.75;;;-3.20;99.90;;;;;;5002241;28;20644;-83
2022/12/14 12:16:43;;;;;;;28.95;11.90;;;-3.10;99.90;;;;;;4952852;28;20053;-83
2022/12/14 12:19:13;;;;;;;29.02;11.68;;;-3.20;99.90;;;;;;4967084;28;20066;-83
2022/12/14 12:22:01;;;;;;;26.63;12.77;;;-1.90;99.90;;;;;;4981201;28;20054;-83
2022/12/14 13:07:13;;;;;;;29.58;12.60;;;-3.00;99.90;;;;;;4930993;28;20205;-83
2022/12/14 13:17:23;;;;;;;27.08;12.77;;;-3.20;99.90;;;;;;4955422;28;20655;-83
2022/12/14 13:20:36;;;;;;;28.58;12.95;;;-2.40;99.90;;;;;;4940063;28;20050;-81
2022/12/14 13:23:03;;;;;;;25.45;12.25;;;-3.70;99.90;;;;;;5036874;28;20053;-82
2022/12/14 13:26:25;;;;;;;26.75;11.82;;;-1.20;99.90;;;;;;5029775;28;20055;-82
2022/12/14 13:35:51;;;;;;;;;;;-2.10;99.90;;;;;;4951635;28;20178;-82
2022/12/14 13:38:41;;;;;;;21.65;10.45;;;-1.20;99.90;;;;;;5009126;28;19979;-82
2022/12/14 13:52:47;;;;;;;21.17;10.55;;;-2.10;99.90;;;;;;4952001;28;20053;-82
2022/12/14 14:10:51;;;;;;;22.20;9.93;;;-2.30;99.90;;;;;;4855746;29;20061;-82
2022/12/14 14:28:38;;;;;;;25.15;11.38;;;-0.70;99.90;;;;;;4879099;29;20537;-82
2022/12/14 14:31:04;;;;;;;27.85;11.70;;;-3.30;99.90;;;;;;4858494;29;20052;-83
2022/12/14 14:40:51;;;;;;;23.20;11.02;;;-0.70;99.90;;;;;;4953242;28;20046;-82
2022/12/14 14:43:24;;;;;;;23.23;10.10;;;-0.70;99.90;;;;;;4948258;28;20516;-82
2022/12/14 14:45:59;;;;;;;23.98;10.80;;;-2.30;99.90;;;;;;5014052;28;20052;-84
2022/12/14 14:48:53;;;;;;;24.77;11.20;;;-2.40;99.90;;;;;;5019098;28;20037;-82
2022/12/14 14:51:59;;;;;;;;;;;;;;;;;;;;;
2022/12/14 14:58:59;;;;;;;29.13;10.38;;;-1.50;99.90;;;;;;4990042;28;20100;-83
2022/12/14 15:01:44;;;;;;;20.27;9.38;;;-2.20;99.90;;;;;;4965701;28;20533;-81
2022/12/14 15:04:47;;;;;;;28.95;10.95;;;-2.40;99.90;;;;;;4992427;28;20073;-82
2022/12/14 15:07:41;;;;;;;;;;;;;;;;;;;;;
2022/12/14 15:10:39;;;;;;;22.58;10.80;;;-2.40;99.90;;;;;;5009785;28;20061;-82